sensor_id;sensor_type;location;lat;lon;timestamp;temperature;humidity
75130;HTU21D;63703;44.716;37.846;2023-01-04T00:01:51;9.93;82.62
75130;HTU21D;63703;44.716;37.846;2023-01-04T00:04:17;9.96;82.49
75130;HTU21D;63703;44.716;37.846;2023-01-04T00:06:43;9.97;82.42
75130;HTU21D;63703;44.716;37.846;2023-01-04T00:09:09;9.99;82.39
75130;HTU21D;63703;44.716;37.846;2023-01-04T00:11:35;9.96;82.48
75130;HTU21D;63703;44.716;37.846;2023-01-04T00:14:01;9.97;82.47
75130;HTU21D;63703;44.716;37.846;2023-01-04T00:16:28;9.95;82.47
75130;HTU21D;63703;44.716;37.846;2023-01-04T00:18:54;9.94;82.42
75130;HTU21D;63703;44.716;37.846;2023-01-04T00:21:24;9.94;82.39
75130;HTU21D;63703;44.716;37.846;2023-01-04T00:23:53;9.94;82.34
75130;HTU21D;63703;44.716;37.846;2023-01-04T00:26:22;9.96;82.29
75130;HTU21D;63703;44.716;37.846;2023-01-04T00:28:55;9.95;82.24
75130;HTU21D;63703;44.716;37.846;2023-01-04T00:31:23;9.96;82.19
75130;HTU21D;63703;44.716;37.846;2023-01-04T00:33:52;9.95;82.15
75130;HTU21D;63703;44.716;37.846;2023-01-04T00:36:18;9.96;82.09
75130;HTU21D;63703;44.716;37.846;2023-01-04T00:38:44;9.95;82.11
75130;HTU21D;63703;44.716;37.846;2023-01-04T00:41:11;9.95;82.10
75130;HTU21D;63703;44.716;37.846;2023-01-04T00:43:37;9.96;82.06
75130;HTU21D;63703;44.716;37.846;2023-01-04T00:46:04;9.95;82.02
75130;HTU21D;63703;44.716;37.846;2023-01-04T00:48:32;9.96;82.01
75130;HTU21D;63703;44.716;37.846;2023-01-04T00:50:58;9.96;81.98
75130;HTU21D;63703;44.716;37.846;2023-01-04T00:53:25;9.95;82.01
75130;HTU21D;63703;44.716;37.846;2023-01-04T00:55:50;9.96;81.98
75130;HTU21D;63703;44.716;37.846;2023-01-04T00:58:16;9.97;81.94
75130;HTU21D;63703;44.716;37.846;2023-01-04T01:00:42;9.98;81.97
75130;HTU21D;63703;44.716;37.846;2023-01-04T01:03:08;9.97;81.97
75130;HTU21D;63703;44.716;37.846;2023-01-04T01:05:34;9.97;81.96
75130;HTU21D;63703;44.716;37.846;2023-01-04T01:08:01;10.00;81.94
75130;HTU21D;63703;44.716;37.846;2023-01-04T01:10:46;10.00;81.94
75130;HTU21D;63703;44.716;37.846;2023-01-04T01:13:12;10.00;82.02
75130;HTU21D;63703;44.716;37.846;2023-01-04T01:15:38;10.01;82.10
75130;HTU21D;63703;44.716;37.846;2023-01-04T01:18:04;10.04;82.10
75130;HTU21D;63703;44.716;37.846;2023-01-04T01:20:30;10.01;82.17
75130;HTU21D;63703;44.716;37.846;2023-01-04T01:22:56;9.99;82.25
75130;HTU21D;63703;44.716;37.846;2023-01-04T01:25:22;10.01;82.24
75130;HTU21D;63703;44.716;37.846;2023-01-04T01:27:48;10.00;82.28
75130;HTU21D;63703;44.716;37.846;2023-01-04T01:30:14;10.00;82.33
75130;HTU21D;63703;44.716;37.846;2023-01-04T01:32:40;9.98;82.34
75130;HTU21D;63703;44.716;37.846;2023-01-04T01:35:06;9.97;82.36
75130;HTU21D;63703;44.716;37.846;2023-01-04T01:37:32;9.95;82.39
75130;HTU21D;63703;44.716;37.846;2023-01-04T01:39:58;9.93;82.42
75130;HTU21D;63703;44.716;37.846;2023-01-04T01:42:24;9.94;82.45
75130;HTU21D;63703;44.716;37.846;2023-01-04T01:45:03;9.95;82.49
75130;HTU21D;63703;44.716;37.846;2023-01-04T01:47:44;9.95;82.45
75130;HTU21D;63703;44.716;37.846;2023-01-04T01:50:22;9.95;82.46
75130;HTU21D;63703;44.716;37.846;2023-01-04T01:52:50;9.92;82.42
75130;HTU21D;63703;44.716;37.846;2023-01-04T01:55:18;9.93;82.41
75130;HTU21D;63703;44.716;37.846;2023-01-04T01:57:47;9.94;82.41
75130;HTU21D;63703;44.716;37.846;2023-01-04T02:00:14;9.95;82.40
75130;HTU21D;63703;44.716;37.846;2023-01-04T02:02:48;9.95;82.49
75130;HTU21D;63703;44.716;37.846;2023-01-04T02:05:18;9.96;82.52
75130;HTU21D;63703;44.716;37.846;2023-01-04T02:07:46;9.97;82.58
75130;HTU21D;63703;44.716;37.846;2023-01-04T02:10:13;9.97;82.65
75130;HTU21D;63703;44.716;37.846;2023-01-04T02:12:39;9.95;82.73
75130;HTU21D;63703;44.716;37.846;2023-01-04T02:15:07;9.96;82.73
75130;HTU21D;63703;44.716;37.846;2023-01-04T02:31:03;9.92;82.88
75130;HTU21D;63703;44.716;37.846;2023-01-04T02:34:42;9.96;82.82
75130;HTU21D;63703;44.716;37.846;2023-01-04T02:45:03;9.93;82.75
75130;HTU21D;63703;44.716;37.846;2023-01-04T02:47:29;9.90;82.71
75130;HTU21D;63703;44.716;37.846;2023-01-04T02:50:33;9.90;82.77
75130;HTU21D;63703;44.716;37.846;2023-01-04T02:53:14;9.89;82.76
75130;HTU21D;63703;44.716;37.846;2023-01-04T03:01:33;9.91;82.84
75130;HTU21D;63703;44.716;37.846;2023-01-04T03:04:52;9.93;82.82
75130;HTU21D;63703;44.716;37.846;2023-01-04T03:11:00;9.91;82.86
75130;HTU21D;63703;44.716;37.846;2023-01-04T03:13:34;9.91;82.83
75130;HTU21D;63703;44.716;37.846;2023-01-04T03:16:10;9.95;82.77
75130;HTU21D;63703;44.716;37.846;2023-01-04T03:18:41;9.98;82.67
75130;HTU21D;63703;44.716;37.846;2023-01-04T03:21:10;10.00;82.68
75130;HTU21D;63703;44.716;37.846;2023-01-04T03:23:38;10.00;82.72
75130;HTU21D;63703;44.716;37.846;2023-01-04T03:26:27;10.01;82.78
75130;HTU21D;63703;44.716;37.846;2023-01-04T03:29:19;10.01;82.83
75130;HTU21D;63703;44.716;37.846;2023-01-04T03:32:07;9.98;82.84
75130;HTU21D;63703;44.716;37.846;2023-01-04T03:34:59;9.96;82.81
75130;HTU21D;63703;44.716;37.846;2023-01-04T03:38:01;9.97;82.80
75130;HTU21D;63703;44.716;37.846;2023-01-04T03:40:58;9.97;82.76
75130;HTU21D;63703;44.716;37.846;2023-01-04T03:43:55;9.95;82.72
75130;HTU21D;63703;44.716;37.846;2023-01-04T03:46:52;9.94;82.67
75130;HTU21D;63703;44.716;37.846;2023-01-04T03:49:47;9.94;82.66
75130;HTU21D;63703;44.716;37.846;2023-01-04T03:52:15;9.93;82.64
75130;HTU21D;63703;44.716;37.846;2023-01-04T03:54:44;9.97;82.29
75130;HTU21D;63703;44.716;37.846;2023-01-04T03:57:13;9.98;82.08
75130;HTU21D;63703;44.716;37.846;2023-01-04T03:59:47;10.01;81.89
75130;HTU21D;63703;44.716;37.846;2023-01-04T04:02:14;10.05;81.61
75130;HTU21D;63703;44.716;37.846;2023-01-04T04:04:44;10.06;81.42
75130;HTU21D;63703;44.716;37.846;2023-01-04T04:07:29;10.08;81.30
75130;HTU21D;63703;44.716;37.846;2023-01-04T04:10:14;10.09;81.20
75130;HTU21D;63703;44.716;37.846;2023-01-04T04:12:40;10.12;81.04
75130;HTU21D;63703;44.716;37.846;2023-01-04T04:15:06;10.12;81.07
75130;HTU21D;63703;44.716;37.846;2023-01-04T04:17:32;10.10;81.14
75130;HTU21D;63703;44.716;37.846;2023-01-04T04:19:58;10.08;81.15
75130;HTU21D;63703;44.716;37.846;2023-01-04T04:22:24;10.09;81.17
75130;HTU21D;63703;44.716;37.846;2023-01-04T04:24:50;10.08;81.16
75130;HTU21D;63703;44.716;37.846;2023-01-04T04:27:16;10.14;80.75
75130;HTU21D;63703;44.716;37.846;2023-01-04T04:29:42;10.18;80.51
75130;HTU21D;63703;44.716;37.846;2023-01-04T04:32:07;10.18;80.45
75130;HTU21D;63703;44.716;37.846;2023-01-04T04:34:33;10.18;80.27
75130;HTU21D;63703;44.716;37.846;2023-01-04T04:36:59;10.20;80.19
75130;HTU21D;63703;44.716;37.846;2023-01-04T04:39:25;10.22;79.90
75130;HTU21D;63703;44.716;37.846;2023-01-04T04:41:51;10.23;79.84
75130;HTU21D;63703;44.716;37.846;2023-01-04T04:44:18;10.23;79.71
75130;HTU21D;63703;44.716;37.846;2023-01-04T04:46:46;10.25;79.47
75130;HTU21D;63703;44.716;37.846;2023-01-04T04:49:13;10.26;79.21
75130;HTU21D;63703;44.716;37.846;2023-01-04T04:51:40;10.29;78.96
75130;HTU21D;63703;44.716;37.846;2023-01-04T04:54:08;10.28;79.01
75130;HTU21D;63703;44.716;37.846;2023-01-04T04:56:34;10.29;78.85
75130;HTU21D;63703;44.716;37.846;2023-01-04T04:59:02;10.28;78.85
75130;HTU21D;63703;44.716;37.846;2023-01-04T05:01:28;10.28;78.83
75130;HTU21D;63703;44.716;37.846;2023-01-04T05:03:55;10.29;78.78
75130;HTU21D;63703;44.716;37.846;2023-01-04T05:06:21;10.30;78.59
75130;HTU21D;63703;44.716;37.846;2023-01-04T05:08:47;10.34;78.22
75130;HTU21D;63703;44.716;37.846;2023-01-04T05:11:14;10.36;77.77
75130;HTU21D;63703;44.716;37.846;2023-01-04T05:13:40;10.36;77.60
75130;HTU21D;63703;44.716;37.846;2023-01-04T05:16:08;10.36;77.48
75130;HTU21D;63703;44.716;37.846;2023-01-04T05:18:34;10.36;77.02
75130;HTU21D;63703;44.716;37.846;2023-01-04T05:21:00;10.34;76.76
75130;HTU21D;63703;44.716;37.846;2023-01-04T05:23:27;10.30;76.89
75130;HTU21D;63703;44.716;37.846;2023-01-04T05:25:56;10.29;76.70
75130;HTU21D;63703;44.716;37.846;2023-01-04T05:28:23;10.28;76.69
75130;HTU21D;63703;44.716;37.846;2023-01-04T05:30:50;10.28;76.50
75130;HTU21D;63703;44.716;37.846;2023-01-04T05:35:47;10.34;76.03
75130;HTU21D;63703;44.716;37.846;2023-01-04T05:38:14;10.35;76.09
75130;HTU21D;63703;44.716;37.846;2023-01-04T05:40:40;10.35;76.22
75130;HTU21D;63703;44.716;37.846;2023-01-04T05:43:06;10.37;76.20
75130;HTU21D;63703;44.716;37.846;2023-01-04T05:45:32;10.36;76.37
75130;HTU21D;63703;44.716;37.846;2023-01-04T05:47:59;10.39;76.46
75130;HTU21D;63703;44.716;37.846;2023-01-04T05:50:25;10.40;76.47
75130;HTU21D;63703;44.716;37.846;2023-01-04T05:52:51;10.40;76.60
75130;HTU21D;63703;44.716;37.846;2023-01-04T05:55:18;10.40;76.75
75130;HTU21D;63703;44.716;37.846;2023-01-04T05:57:44;10.39;76.90
75130;HTU21D;63703;44.716;37.846;2023-01-04T06:00:11;10.39;77.07
75130;HTU21D;63703;44.716;37.846;2023-01-04T06:02:41;10.38;77.18
75130;HTU21D;63703;44.716;37.846;2023-01-04T06:05:07;10.36;77.25
75130;HTU21D;63703;44.716;37.846;2023-01-04T06:07:34;10.37;77.33
75130;HTU21D;63703;44.716;37.846;2023-01-04T06:10:00;10.39;77.35
75130;HTU21D;63703;44.716;37.846;2023-01-04T06:12:26;10.40;77.37
75130;HTU21D;63703;44.716;37.846;2023-01-04T06:14:52;10.42;77.37
75130;HTU21D;63703;44.716;37.846;2023-01-04T06:17:18;10.44;77.37
75130;HTU21D;63703;44.716;37.846;2023-01-04T06:19:44;10.45;77.38
75130;HTU21D;63703;44.716;37.846;2023-01-04T06:22:10;10.50;77.37
75130;HTU21D;63703;44.716;37.846;2023-01-04T06:24:36;10.52;77.37
75130;HTU21D;63703;44.716;37.846;2023-01-04T06:27:03;10.56;77.40
75130;HTU21D;63703;44.716;37.846;2023-01-04T06:29:30;10.62;77.41
75130;HTU21D;63703;44.716;37.846;2023-01-04T06:31:56;10.66;77.37
75130;HTU21D;63703;44.716;37.846;2023-01-04T06:34:22;10.71;77.31
75130;HTU21D;63703;44.716;37.846;2023-01-04T06:36:48;10.79;77.24
75130;HTU21D;63703;44.716;37.846;2023-01-04T06:39:14;10.81;77.20
75130;HTU21D;63703;44.716;37.846;2023-01-04T06:41:40;10.83;77.23
75130;HTU21D;63703;44.716;37.846;2023-01-04T06:44:06;10.85;77.24
75130;HTU21D;63703;44.716;37.846;2023-01-04T06:46:32;10.88;77.19
75130;HTU21D;63703;44.716;37.846;2023-01-04T06:48:58;10.92;77.12
75130;HTU21D;63703;44.716;37.846;2023-01-04T06:51:24;10.96;77.08
75130;HTU21D;63703;44.716;37.846;2023-01-04T06:53:50;11.00;77.03
75130;HTU21D;63703;44.716;37.846;2023-01-04T06:56:16;11.02;76.96
75130;HTU21D;63703;44.716;37.846;2023-01-04T06:58:42;11.05;76.88
75130;HTU21D;63703;44.716;37.846;2023-01-04T07:01:08;11.08;76.86
75130;HTU21D;63703;44.716;37.846;2023-01-04T07:03:34;11.10;76.79
75130;HTU21D;63703;44.716;37.846;2023-01-04T07:06:03;11.13;76.70
75130;HTU21D;63703;44.716;37.846;2023-01-04T07:08:31;11.15;76.69
75130;HTU21D;63703;44.716;37.846;2023-01-04T07:10:57;11.18;76.55
75130;HTU21D;63703;44.716;37.846;2023-01-04T07:13:23;11.20;76.53
75130;HTU21D;63703;44.716;37.846;2023-01-04T07:15:49;11.27;76.41
75130;HTU21D;63703;44.716;37.846;2023-01-04T07:18:15;11.33;76.22
75130;HTU21D;63703;44.716;37.846;2023-01-04T07:20:41;11.37;76.08
75130;HTU21D;63703;44.716;37.846;2023-01-04T07:23:08;11.44;75.92
75130;HTU21D;63703;44.716;37.846;2023-01-04T07:25:34;11.48;75.76
75130;HTU21D;63703;44.716;37.846;2023-01-04T07:28:00;11.53;75.68
75130;HTU21D;63703;44.716;37.846;2023-01-04T07:30:27;11.56;75.59
75130;HTU21D;63703;44.716;37.846;2023-01-04T07:32:54;11.58;75.48
75130;HTU21D;63703;44.716;37.846;2023-01-04T07:35:21;11.60;75.39
75130;HTU21D;63703;44.716;37.846;2023-01-04T07:37:48;11.63;75.29
75130;HTU21D;63703;44.716;37.846;2023-01-04T07:40:14;11.68;75.17
75130;HTU21D;63703;44.716;37.846;2023-01-04T07:42:40;11.71;74.99
75130;HTU21D;63703;44.716;37.846;2023-01-04T07:45:08;11.74;74.84
75130;HTU21D;63703;44.716;37.846;2023-01-04T07:47:34;11.76;74.65
75130;HTU21D;63703;44.716;37.846;2023-01-04T07:50:00;11.75;74.41
75130;HTU21D;63703;44.716;37.846;2023-01-04T07:52:27;11.75;74.10
75130;HTU21D;63703;44.716;37.846;2023-01-04T07:54:53;11.77;73.86
75130;HTU21D;63703;44.716;37.846;2023-01-04T07:57:19;11.85;73.70
75130;HTU21D;63703;44.716;37.846;2023-01-04T07:59:45;11.92;73.49
75130;HTU21D;63703;44.716;37.846;2023-01-04T08:02:11;12.01;73.44
75130;HTU21D;63703;44.716;37.846;2023-01-04T08:04:37;12.10;73.28
75130;HTU21D;63703;44.716;37.846;2023-01-04T08:07:03;12.16;73.03
75130;HTU21D;63703;44.716;37.846;2023-01-04T08:09:31;12.17;72.93
75130;HTU21D;63703;44.716;37.846;2023-01-04T08:11:56;12.22;72.83
75130;HTU21D;63703;44.716;37.846;2023-01-04T08:14:22;12.28;72.67
75130;HTU21D;63703;44.716;37.846;2023-01-04T08:16:48;12.32;72.49
75130;HTU21D;63703;44.716;37.846;2023-01-04T08:19:19;12.37;72.17
75130;HTU21D;63703;44.716;37.846;2023-01-04T08:21:46;12.37;72.22
75130;HTU21D;63703;44.716;37.846;2023-01-04T08:24:15;12.40;72.04
75130;HTU21D;63703;44.716;37.846;2023-01-04T08:26:42;12.37;72.02
75130;HTU21D;63703;44.716;37.846;2023-01-04T08:29:08;12.36;71.95
75130;HTU21D;63703;44.716;37.846;2023-01-04T08:31:34;12.32;71.71
75130;HTU21D;63703;44.716;37.846;2023-01-04T08:34:03;12.26;71.46
75130;HTU21D;63703;44.716;37.846;2023-01-04T08:36:47;12.20;71.04
75130;HTU21D;63703;44.716;37.846;2023-01-04T08:39:13;12.14;71.34
75130;HTU21D;63703;44.716;37.846;2023-01-04T08:41:40;12.05;71.03
75130;HTU21D;63703;44.716;37.846;2023-01-04T08:44:20;11.99;71.22
75130;HTU21D;63703;44.716;37.846;2023-01-04T08:46:46;11.96;71.31
75130;HTU21D;63703;44.716;37.846;2023-01-04T08:49:13;11.97;71.32
75130;HTU21D;63703;44.716;37.846;2023-01-04T08:51:40;12.01;71.29
75130;HTU21D;63703;44.716;37.846;2023-01-04T08:54:08;12.03;71.06
75130;HTU21D;63703;44.716;37.846;2023-01-04T08:56:34;11.96;70.87
75130;HTU21D;63703;44.716;37.846;2023-01-04T08:59:00;11.92;70.94
75130;HTU21D;63703;44.716;37.846;2023-01-04T09:01:27;11.94;70.97
75130;HTU21D;63703;44.716;37.846;2023-01-04T09:03:55;11.93;70.71
75130;HTU21D;63703;44.716;37.846;2023-01-04T09:06:21;11.85;70.55
75130;HTU21D;63703;44.716;37.846;2023-01-04T09:08:47;11.79;70.29
75130;HTU21D;63703;44.716;37.846;2023-01-04T09:11:15;11.74;70.50
75130;HTU21D;63703;44.716;37.846;2023-01-04T09:13:42;11.72;70.56
75130;HTU21D;63703;44.716;37.846;2023-01-04T09:16:16;11.71;70.56
75130;HTU21D;63703;44.716;37.846;2023-01-04T09:18:43;11.69;70.67
75130;HTU21D;63703;44.716;37.846;2023-01-04T09:21:11;11.67;70.61
75130;HTU21D;63703;44.716;37.846;2023-01-04T09:23:39;11.61;70.64
75130;HTU21D;63703;44.716;37.846;2023-01-04T09:26:13;11.58;70.63
75130;HTU21D;63703;44.716;37.846;2023-01-04T09:28:40;11.56;70.68
75130;HTU21D;63703;44.716;37.846;2023-01-04T09:31:12;11.56;70.34
75130;HTU21D;63703;44.716;37.846;2023-01-04T09:33:39;11.49;70.52
75130;HTU21D;63703;44.716;37.846;2023-01-04T09:36:06;11.47;70.50
75130;HTU21D;63703;44.716;37.846;2023-01-04T09:38:33;11.44;70.57
75130;HTU21D;63703;44.716;37.846;2023-01-04T09:43:55;11.48;70.61
75130;HTU21D;63703;44.716;37.846;2023-01-04T09:49:44;11.55;70.13
75130;HTU21D;63703;44.716;37.846;2023-01-04T09:52:31;11.53;70.70
75130;HTU21D;63703;44.716;37.846;2023-01-04T09:55:08;11.52;70.69
75130;HTU21D;63703;44.716;37.846;2023-01-04T09:57:52;11.47;70.09
75130;HTU21D;63703;44.716;37.846;2023-01-04T10:00:27;11.43;70.28
75130;HTU21D;63703;44.716;37.846;2023-01-04T10:03:14;11.41;69.88
75130;HTU21D;63703;44.716;37.846;2023-01-04T10:05:41;11.37;70.51
75130;HTU21D;63703;44.716;37.846;2023-01-04T10:08:17;11.40;70.27
75130;HTU21D;63703;44.716;37.846;2023-01-04T10:19:36;11.42;70.35
75130;HTU21D;63703;44.716;37.846;2023-01-04T10:22:40;11.37;70.61
75130;HTU21D;63703;44.716;37.846;2023-01-04T10:25:35;11.34;70.79
75130;HTU21D;63703;44.716;37.846;2023-01-04T10:33:49;11.28;71.29
75130;HTU21D;63703;44.716;37.846;2023-01-04T10:36:21;11.27;71.33
75130;HTU21D;63703;44.716;37.846;2023-01-04T10:39:03;11.28;71.35
75130;HTU21D;63703;44.716;37.846;2023-01-04T10:41:38;11.32;71.45
75130;HTU21D;63703;44.716;37.846;2023-01-04T10:44:17;11.32;71.55
75130;HTU21D;63703;44.716;37.846;2023-01-04T10:47:36;11.34;71.59
75130;HTU21D;63703;44.716;37.846;2023-01-04T10:49:43;11.28;71.77
75130;HTU21D;63703;44.716;37.846;2023-01-04T10:55:00;11.23;72.06
75130;HTU21D;63703;44.716;37.846;2023-01-04T10:57:48;11.24;72.17
75130;HTU21D;63703;44.716;37.846;2023-01-04T11:00:23;11.24;72.22
75130;HTU21D;63703;44.716;37.846;2023-01-04T11:08:02;11.24;72.46
75130;HTU21D;63703;44.716;37.846;2023-01-04T11:13:29;11.20;72.63
75130;HTU21D;63703;44.716;37.846;2023-01-04T11:15:56;11.15;72.61
75130;HTU21D;63703;44.716;37.846;2023-01-04T11:18:22;11.10;72.77
75130;HTU21D;63703;44.716;37.846;2023-01-04T11:20:50;11.08;72.83
75130;HTU21D;63703;44.716;37.846;2023-01-04T11:23:18;11.03;72.87
75130;HTU21D;63703;44.716;37.846;2023-01-04T11:28:36;10.90;73.00
75130;HTU21D;63703;44.716;37.846;2023-01-04T11:31:25;10.82;73.19
75130;HTU21D;63703;44.716;37.846;2023-01-04T11:36:40;10.63;73.46
75130;HTU21D;63703;44.716;37.846;2023-01-04T11:39:27;10.59;73.62
75130;HTU21D;63703;44.716;37.846;2023-01-04T11:41:58;10.59;73.67
75130;HTU21D;63703;44.716;37.846;2023-01-04T11:44:25;10.59;73.70
75130;HTU21D;63703;44.716;37.846;2023-01-04T11:49:39;10.53;73.88
75130;HTU21D;63703;44.716;37.846;2023-01-04T11:52:05;10.54;73.92
75130;HTU21D;63703;44.716;37.846;2023-01-04T11:54:33;10.51;73.96
75130;HTU21D;63703;44.716;37.846;2023-01-04T11:57:04;10.52;73.98
75130;HTU21D;63703;44.716;37.846;2023-01-04T11:59:32;10.43;74.06
75130;HTU21D;63703;44.716;37.846;2023-01-04T12:02:18;10.41;74.13
75130;HTU21D;63703;44.716;37.846;2023-01-04T12:04:45;10.37;74.21
75130;HTU21D;63703;44.716;37.846;2023-01-04T12:07:33;10.31;74.32
75130;HTU21D;63703;44.716;37.846;2023-01-04T12:10:20;10.26;74.46
75130;HTU21D;63703;44.716;37.846;2023-01-04T12:12:46;10.21;74.54
75130;HTU21D;63703;44.716;37.846;2023-01-04T12:15:19;10.21;74.67
75130;HTU21D;63703;44.716;37.846;2023-01-04T12:20:17;10.12;74.84
75130;HTU21D;63703;44.716;37.846;2023-01-04T12:22:43;10.07;74.92
75130;HTU21D;63703;44.716;37.846;2023-01-04T12:28:00;9.94;75.21
75130;HTU21D;63703;44.716;37.846;2023-01-04T12:30:43;9.91;75.40
75130;HTU21D;63703;44.716;37.846;2023-01-04T12:36:10;9.80;75.62
75130;HTU21D;63703;44.716;37.846;2023-01-04T12:47:06;9.68;76.05
75130;HTU21D;63703;44.716;37.846;2023-01-04T12:50:20;9.63;76.18
75130;HTU21D;63703;44.716;37.846;2023-01-04T12:57:59;9.69;76.22
75130;HTU21D;63703;44.716;37.846;2023-01-04T13:06:05;9.81;76.31
75130;HTU21D;63703;44.716;37.846;2023-01-04T13:08:39;9.81;76.25
75130;HTU21D;63703;44.716;37.846;2023-01-04T13:11:23;9.81;76.31
75130;HTU21D;63703;44.716;37.846;2023-01-04T13:13:57;9.78;76.28
75130;HTU21D;63703;44.716;37.846;2023-01-04T13:19:17;9.81;76.28
75130;HTU21D;63703;44.716;37.846;2023-01-04T13:21:45;9.79;76.28
75130;HTU21D;63703;44.716;37.846;2023-01-04T13:24:31;9.80;76.28
75130;HTU21D;63703;44.716;37.846;2023-01-04T13:27:20;9.78;76.30
75130;HTU21D;63703;44.716;37.846;2023-01-04T13:29:47;9.71;76.31
75130;HTU21D;63703;44.716;37.846;2023-01-04T13:32:15;9.65;76.35
75130;HTU21D;63703;44.716;37.846;2023-01-04T13:34:54;9.59;76.52
75130;HTU21D;63703;44.716;37.846;2023-01-04T13:37:40;9.47;76.62
75130;HTU21D;63703;44.716;37.846;2023-01-04T13:40:33;9.35;76.94
75130;HTU21D;63703;44.716;37.846;2023-01-04T13:48:37;9.10;77.20
75130;HTU21D;63703;44.716;37.846;2023-01-04T13:51:15;9.07;77.37
75130;HTU21D;63703;44.716;37.846;2023-01-04T13:53:54;9.02;77.46
75130;HTU21D;63703;44.716;37.846;2023-01-04T13:56:29;8.98;77.48
75130;HTU21D;63703;44.716;37.846;2023-01-04T13:58:58;8.95;77.48
75130;HTU21D;63703;44.716;37.846;2023-01-04T14:01:32;8.93;77.59
75130;HTU21D;63703;44.716;37.846;2023-01-04T14:04:02;8.90;77.56
75130;HTU21D;63703;44.716;37.846;2023-01-04T14:25:29;8.48;78.17
75130;HTU21D;63703;44.716;37.846;2023-01-04T14:30:42;8.34;78.15
75130;HTU21D;63703;44.716;37.846;2023-01-04T14:33:17;8.30;78.25
75130;HTU21D;63703;44.716;37.846;2023-01-04T14:35:43;8.24;78.22
75130;HTU21D;63703;44.716;37.846;2023-01-04T14:38:16;8.18;78.19
75130;HTU21D;63703;44.716;37.846;2023-01-04T14:40:43;8.14;78.21
75130;HTU21D;63703;44.716;37.846;2023-01-04T14:43:52;8.09;78.38
75130;HTU21D;63703;44.716;37.846;2023-01-04T14:46:20;8.01;78.26
75130;HTU21D;63703;44.716;37.846;2023-01-04T14:48:46;7.92;78.36
75130;HTU21D;63703;44.716;37.846;2023-01-04T14:51:15;7.87;78.39
75130;HTU21D;63703;44.716;37.846;2023-01-04T14:53:42;7.84;78.43
75130;HTU21D;63703;44.716;37.846;2023-01-04T14:56:13;7.81;78.50
75130;HTU21D;63703;44.716;37.846;2023-01-04T14:58:39;7.75;78.63
75130;HTU21D;63703;44.716;37.846;2023-01-04T15:01:05;7.64;78.63
75130;HTU21D;63703;44.716;37.846;2023-01-04T15:03:31;7.59;78.73
75130;HTU21D;63703;44.716;37.846;2023-01-04T15:05:57;7.55;78.78
75130;HTU21D;63703;44.716;37.846;2023-01-04T15:08:23;7.53;78.78
75130;HTU21D;63703;44.716;37.846;2023-01-04T15:10:49;7.52;78.79
75130;HTU21D;63703;44.716;37.846;2023-01-04T15:13:15;7.49;78.78
75130;HTU21D;63703;44.716;37.846;2023-01-04T15:15:41;7.50;78.85
75130;HTU21D;63703;44.716;37.846;2023-01-04T15:18:08;7.53;78.72
75130;HTU21D;63703;44.716;37.846;2023-01-04T15:20:34;7.55;78.67
75130;HTU21D;63703;44.716;37.846;2023-01-04T15:23:00;7.54;78.64
75130;HTU21D;63703;44.716;37.846;2023-01-04T15:25:26;7.57;78.63
75130;HTU21D;63703;44.716;37.846;2023-01-04T15:27:54;7.58;78.58
75130;HTU21D;63703;44.716;37.846;2023-01-04T15:30:20;7.59;78.52
75130;HTU21D;63703;44.716;37.846;2023-01-04T15:32:46;7.60;78.39
75130;HTU21D;63703;44.716;37.846;2023-01-04T15:35:12;7.58;78.40
75130;HTU21D;63703;44.716;37.846;2023-01-04T15:37:44;7.59;78.35
75130;HTU21D;63703;44.716;37.846;2023-01-04T15:40:15;7.58;78.31
75130;HTU21D;63703;44.716;37.846;2023-01-04T15:42:42;7.49;78.37
75130;HTU21D;63703;44.716;37.846;2023-01-04T15:45:28;7.42;78.41
75130;HTU21D;63703;44.716;37.846;2023-01-04T15:47:54;7.35;78.43
75130;HTU21D;63703;44.716;37.846;2023-01-04T15:50:23;7.31;78.46
75130;HTU21D;63703;44.716;37.846;2023-01-04T15:52:49;7.28;78.48
75130;HTU21D;63703;44.716;37.846;2023-01-04T15:55:15;7.26;78.49
75130;HTU21D;63703;44.716;37.846;2023-01-04T15:57:41;7.24;78.49
75130;HTU21D;63703;44.716;37.846;2023-01-04T16:00:07;7.22;78.43
75130;HTU21D;63703;44.716;37.846;2023-01-04T16:02:37;7.19;78.43
75130;HTU21D;63703;44.716;37.846;2023-01-04T16:05:04;7.15;78.39
75130;HTU21D;63703;44.716;37.846;2023-01-04T16:07:30;7.13;78.41
75130;HTU21D;63703;44.716;37.846;2023-01-04T16:09:56;7.13;78.39
75130;HTU21D;63703;44.716;37.846;2023-01-04T16:12:22;7.16;78.32
75130;HTU21D;63703;44.716;37.846;2023-01-04T16:15:27;7.19;78.01
75130;HTU21D;63703;44.716;37.846;2023-01-04T16:17:54;7.18;78.02
75130;HTU21D;63703;44.716;37.846;2023-01-04T16:20:20;7.18;78.00
75130;HTU21D;63703;44.716;37.846;2023-01-04T16:22:48;7.15;77.90
75130;HTU21D;63703;44.716;37.846;2023-01-04T16:25:14;7.15;77.47
75130;HTU21D;63703;44.716;37.846;2023-01-04T16:27:40;7.11;77.50
75130;HTU21D;63703;44.716;37.846;2023-01-04T16:30:11;7.10;77.34
75130;HTU21D;63703;44.716;37.846;2023-01-04T16:32:42;7.07;77.31
75130;HTU21D;63703;44.716;37.846;2023-01-04T16:35:09;7.05;77.26
75130;HTU21D;63703;44.716;37.846;2023-01-04T16:37:35;6.98;77.40
75130;HTU21D;63703;44.716;37.846;2023-01-04T16:40:02;6.95;77.40
75130;HTU21D;63703;44.716;37.846;2023-01-04T16:42:28;6.93;77.27
75130;HTU21D;63703;44.716;37.846;2023-01-04T16:44:55;6.90;77.27
75130;HTU21D;63703;44.716;37.846;2023-01-04T16:47:20;6.84;77.30
75130;HTU21D;63703;44.716;37.846;2023-01-04T16:49:50;6.83;77.15
75130;HTU21D;63703;44.716;37.846;2023-01-04T16:52:16;6.79;77.04
75130;HTU21D;63703;44.716;37.846;2023-01-04T16:54:42;6.74;77.08
75130;HTU21D;63703;44.716;37.846;2023-01-04T16:57:08;6.70;76.96
75130;HTU21D;63703;44.716;37.846;2023-01-04T16:59:34;6.67;76.83
75130;HTU21D;63703;44.716;37.846;2023-01-04T17:02:01;6.61;76.91
75130;HTU21D;63703;44.716;37.846;2023-01-04T17:04:27;6.56;76.95
75130;HTU21D;63703;44.716;37.846;2023-01-04T17:06:53;6.53;76.78
75130;HTU21D;63703;44.716;37.846;2023-01-04T17:09:21;6.48;76.38
75130;HTU21D;63703;44.716;37.846;2023-01-04T17:11:47;6.42;76.51
75130;HTU21D;63703;44.716;37.846;2023-01-04T17:14:25;6.38;76.27
75130;HTU21D;63703;44.716;37.846;2023-01-04T17:16:52;6.35;76.01
75130;HTU21D;63703;44.716;37.846;2023-01-04T17:19:18;6.29;76.12
75130;HTU21D;63703;44.716;37.846;2023-01-04T17:21:44;6.26;75.89
75130;HTU21D;63703;44.716;37.846;2023-01-04T17:24:10;6.26;75.61
75130;HTU21D;63703;44.716;37.846;2023-01-04T17:26:37;6.24;75.08
75130;HTU21D;63703;44.716;37.846;2023-01-04T17:29:03;6.21;74.57
75130;HTU21D;63703;44.716;37.846;2023-01-04T17:31:32;6.20;74.01
75130;HTU21D;63703;44.716;37.846;2023-01-04T17:33:59;6.15;73.14
75130;HTU21D;63703;44.716;37.846;2023-01-04T17:36:26;6.08;73.73
75130;HTU21D;63703;44.716;37.846;2023-01-04T17:38:52;6.00;73.67